Time;durP1;ratioP1;P1;durP2;ratioP2;P2;SDS_P1;SDS_P2;PMS_P1;PMS_P2;Temp;Humidity;BMP_temperature;BMP_pressure;BME280_temperature;BME280_humidity;BME280_pressure;Samples;Min_cycle;Max_cycle;Signal;HPM_P1;HPM_P2
2022/12/14 00:00:46;;;;;;;9.43;6.68;;;;;;;-3.10;88.31;146564.13;5023669;28;20267;-64
2022/12/14 00:03:13;;;;;;;9.52;6.05;;;;;;;-3.24;87.40;146529.88;5022999;28;20026;-63
2022/12/14 00:05:38;;;;;;;8.93;6.80;;;;;;;-3.16;87.60;146550.19;5032957;28;20033;-64
2022/12/14 00:08:04;;;;;;;13.52;6.28;;;;;;;-3.38;87.50;146494.41;5037332;28;20373;-64
2022/12/14 00:10:31;;;;;;;9.30;6.47;;;;;;;-3.24;87.96;146528.63;5023664;28;20030;-65
2022/12/14 00:12:57;;;;;;;11.15;7.10;;;;;;;-3.36;88.28;146499.50;5027079;28;20025;-64
2022/12/14 00:15:43;;;;;;;8.90;6.28;;;;;;;-3.29;87.35;146517.25;5038823;28;20476;-64
2022/12/14 00:18:10;;;;;;;9.70;6.88;;;;;;;-3.31;86.85;146512.13;5037133;28;20080;-64
2022/12/14 00:20:35;;;;;;;9.73;6.93;;;;;;;-3.14;87.55;146553.97;5042756;28;20033;-65
2022/12/14 00:23:01;;;;;;;8.88;6.75;;;;;;;-3.01;87.07;146586.94;5034421;28;20075;-64
2022/12/14 00:25:26;;;;;;;7.57;5.32;;;;;;;-3.61;85.34;146438.63;5042815;28;20029;-64
2022/12/14 00:27:52;;;;;;;11.63;7.47;;;;;;;-3.34;87.64;146505.78;5022860;28;20306;-63
2022/12/14 00:30:20;;;;;;;8.30;5.15;;;;;;;-3.78;87.00;146396.81;5041656;28;20084;-64
2022/12/14 00:32:46;;;;;;;11.60;7.07;;;;;;;-3.51;87.42;146462.72;5046628;28;20033;-62
2022/12/14 00:35:15;;;;;;;9.95;7.18;;;;;;;-3.62;87.48;146436.06;5033177;28;20333;-63
2022/12/14 00:37:41;;;;;;;13.60;6.50;;;;;;;-3.39;87.00;146493.16;5028594;28;20045;-62
2022/12/14 00:40:08;;;;;;;11.18;6.82;;;;;;;-3.41;87.29;146486.81;5046474;28;20021;-63
2022/12/14 00:42:34;;;;;;;11.90;6.85;;;;;;;-3.27;87.72;146521.03;5029135;28;20037;-64
2022/12/14 00:45:01;;;;;;;11.43;7.13;;;;;;;-3.23;87.54;146531.19;5038763;28;20085;-63
2022/12/14 00:47:27;;;;;;;10.50;6.93;;;;;;;-3.41;87.74;146486.81;5038048;28;20049;-64
2022/12/14 00:49:52;;;;;;;10.73;7.38;;;;;;;-3.37;88.42;146496.94;5029765;28;20040;-64
2022/12/14 00:52:18;;;;;;;14.13;8.57;;;;;;;-3.34;88.71;146504.53;5046307;28;20207;-63
2022/12/14 00:54:43;;;;;;;10.38;7.20;;;;;;;-3.00;89.47;146589.47;5027778;28;20033;-63
2022/12/14 00:57:09;;;;;;;11.90;7.97;;;;;;;-3.18;89.67;146543.84;5039608;28;20237;-64
2022/12/14 00:59:34;;;;;;;10.55;7.85;;;;;;;-3.26;89.15;146523.53;5037240;28;20029;-64
2022/12/14 01:02:00;;;;;;;15.82;7.95;;;;;;;-3.42;89.66;146484.25;5026058;28;20029;-63
2022/12/14 01:04:26;;;;;;;11.68;7.18;;;;;;;-3.52;89.06;146461.47;5026335;28;20203;-63
2022/12/14 01:06:52;;;;;;;10.82;7.38;;;;;;;-3.51;88.68;146462.72;5045421;28;20025;-63
2022/12/14 01:09:20;;;;;;;14.90;7.60;;;;;;;-3.47;88.98;146472.84;5030940;28;20337;-62
2022/12/14 01:11:46;;;;;;;10.77;8.10;;;;;;;-3.05;89.05;146576.81;5033525;28;20025;-64
2022/12/14 01:14:14;;;;;;;11.15;7.63;;;;;;;-3.04;88.80;146578.06;5039911;28;20053;-64
2022/12/14 01:16:40;;;;;;;9.07;7.30;;;;;;;-2.95;87.82;146600.88;5026248;28;20048;-65
2022/12/14 01:19:06;;;;;;;10.52;7.80;;;;;;;-3.14;87.19;146555.22;5032624;28;20037;-64
2022/12/14 01:21:31;;;;;;;11.02;8.27;;;;;;;-3.44;86.94;146480.44;5033892;28;20217;-64
2022/12/14 01:23:59;;;;;;;12.27;6.80;;;;;;;-3.74;86.22;146405.69;5052041;28;20022;-63
2022/12/14 01:26:26;;;;;;;10.75;8.05;;;;;;;-3.55;86.83;146453.88;5024529;28;20022;-63
2022/12/14 01:28:56;;;;;;;10.70;7.20;;;;;;;-3.86;86.32;146377.81;5037055;28;20053;-64
2022/12/14 01:31:32;;;;;;;13.60;7.63;;;;;;;-3.67;86.20;146424.69;5033174;28;20076;-64
2022/12/14 01:33:58;;;;;;;11.55;7.63;;;;;;;-3.81;86.49;146389.22;5026254;28;20033;-64
2022/12/14 01:36:26;;;;;;;14.70;7.78;;;;;;;-3.96;86.27;146352.50;5042254;28;20021;-64
2022/12/14 01:38:59;;;;;;;10.52;7.60;;;;;;;-3.85;86.59;146380.38;5025274;28;20057;-63
2022/12/14 01:41:29;;;;;;;11.75;7.90;;;;;;;-3.84;87.31;146382.88;5036534;28;20143;-63
2022/12/14 01:44:22;;;;;;;13.45;8.05;;;;;;;-3.90;86.39;146366.44;5040601;28;20030;-65
2022/12/14 01:47:05;;;;;;;9.80;6.90;;;;;;;-3.97;85.81;146348.69;5040581;28;20286;-63
2022/12/14 01:49:42;;;;;;;9.50;7.03;;;;;;;-3.96;85.76;146351.19;5030242;28;20041;-64
2022/12/14 01:52:41;;;;;;;10.68;7.53;;;;;;;-3.87;86.17;146374.03;5043081;28;20047;-64
2022/12/14 01:55:27;;;;;;;10.70;7.60;;;;;;;-3.94;86.28;146356.28;5049631;28;20044;-63
2022/12/14 01:58:00;;;;;;;10.35;8.00;;;;;;;-3.91;86.75;146363.88;5025249;28;20203;-63
2022/12/14 02:00:26;;;;;;;11.85;7.85;;;;;;;-3.94;86.98;146356.28;5025361;28;20030;-63
2022/12/14 02:03:06;;;;;;;10.00;8.18;;;;;;;-3.89;87.31;146370.22;5040702;28;20037;-64
2022/12/14 02:05:34;;;;;;;11.13;8.13;;;;;;;-3.80;88.30;146391.75;5044789;28;20413;-62
2022/12/14 02:08:01;;;;;;;11.07;8.27;;;;;;;-3.67;88.43;146424.69;5035587;28;20029;-64
2022/12/14 02:10:29;;;;;;;13.30;8.85;;;;;;;-3.95;87.14;146355.00;5030139;28;20074;-63
2022/12/14 02:13:25;;;;;;;11.77;8.00;;;;;;;-4.04;87.99;146332.22;5029121;28;20026;-63
2022/12/14 02:15:51;;;;;;;12.35;7.72;;;;;;;-4.04;87.65;146332.22;5024695;28;20345;-64
2022/12/14 02:18:36;;;;;;;12.95;8.00;;;;;;;-4.11;87.10;146315.72;5037778;28;20056;-62
2022/12/14 02:21:05;;;;;;;11.20;8.45;;;;;;;-4.19;88.12;146296.75;5035072;28;20317;-63
2022/12/14 02:24:04;;;;;;;16.40;8.88;;;;;;;-4.13;87.87;146310.69;5031493;28;20083;-63
2022/12/14 02:26:30;;;;;;;10.18;8.07;;;;;;;-4.00;88.07;146343.59;5024549;28;20104;-63
2022/12/14 02:29:19;;;;;;;13.02;8.48;;;;;;;-4.03;87.60;146336.00;5024298;28;20075;-63
2022/12/14 02:31:54;;;;;;;12.35;8.98;;;;;;;-3.92;88.04;146361.34;5031247;28;20041;-63
2022/12/14 02:34:58;;;;;;;12.40;8.38;;;;;;;-3.78;88.05;146396.81;5041232;28;20045;-63
2022/12/14 02:37:45;;;;;;;10.95;7.55;;;;;;;-4.27;87.38;146275.22;5027780;28;20021;-65
2022/12/14 02:40:28;;;;;;;12.48;8.68;;;;;;;-4.00;86.68;146342.34;5041256;28;20059;-63
2022/12/14 02:43:31;;;;;;;11.18;8.65;;;;;;;-4.21;87.96;146290.41;5024226;28;20080;-63
2022/12/14 02:46:03;;;;;;;13.82;8.65;;;;;;;-3.95;88.50;146355.00;5024611;28;20030;-63
2022/12/14 02:49:31;;;;;;;12.02;8.40;;;;;;;-3.96;87.87;146351.19;5024291;28;20364;-62
2022/12/14 02:51:56;;;;;;;11.43;8.63;;;;;;;-3.69;88.06;146419.63;5061566;28;20070;-63
2022/12/14 02:54:34;;;;;;;13.18;8.68;;;;;;;-3.84;87.43;146381.63;5036085;28;20025;-64
2022/12/14 02:57:18;;;;;;;11.23;7.93;;;;;;;-4.26;87.27;146279.03;5027160;28;20021;-62
2022/12/14 02:59:45;;;;;;;12.63;8.95;;;;;;;-4.26;88.02;146279.03;5038274;28;20093;-63
2022/12/14 03:02:13;;;;;;;11.52;8.48;;;;;;;-4.36;87.75;146254.94;5033661;28;20033;-64
2022/12/14 03:04:46;;;;;;;14.18;9.00;;;;;;;-4.19;88.05;146296.75;5023889;28;20064;-64
2022/12/14 03:07:35;;;;;;;14.57;9.18;;;;;;;-4.05;88.64;146329.66;5025244;28;20053;-64
2022/12/14 03:10:16;;;;;;;11.82;9.13;;;;;;;-4.24;87.81;146282.81;5043341;28;20037;-63
2022/12/14 03:12:47;;;;;;;13.30;9.25;;;;;;;-4.21;88.74;146291.66;5023529;28;20377;-63
2022/12/14 03:15:17;;;;;;;12.23;8.88;;;;;;;-4.02;88.26;146338.56;5023565;28;20049;-63
2022/12/14 03:17:47;;;;;;;12.38;9.18;;;;;;;-4.01;88.19;146339.81;5037570;28;20031;-62
2022/12/14 03:20:23;;;;;;;16.17;8.73;;;;;;;-4.01;87.15;146341.06;5043135;28;20022;-63
2022/12/14 03:22:55;;;;;;;13.80;9.10;;;;;;;-4.08;86.31;146322.06;5034746;28;20069;-64
2022/12/14 03:25:27;;;;;;;11.98;9.15;;;;;;;-4.08;87.29;146322.06;5023280;28;20041;-63
2022/12/14 03:28:07;;;;;;;9.73;7.85;;;;;;;-4.32;86.29;146263.78;5023354;28;20322;-62
2022/12/14 03:30:36;;;;;;;11.05;8.60;;;;;;;-4.20;86.39;146294.22;5023610;28;20033;-63
2022/12/14 03:33:08;;;;;;;12.07;8.50;;;;;;;-4.39;85.96;146246.06;5039787;28;20025;-62
2022/12/14 03:36:05;;;;;;;13.45;9.45;;;;;;;-4.32;85.20;146262.53;5043214;28;20092;-63
2022/12/14 03:38:34;;;;;;;11.52;8.63;;;;;;;-4.23;84.90;146286.63;5030929;28;20077;-63
2022/12/14 03:41:12;;;;;;;11.35;8.10;;;;;;;-4.30;85.16;146268.88;5031040;28;20036;-63
2022/12/14 03:44:10;;;;;;;13.52;8.32;;;;;;;-4.21;84.65;146290.41;5038548;28;20049;-63
2022/12/14 03:47:02;;;;;;;15.65;9.40;;;;;;;-4.54;85.41;146210.63;5034625;28;20041;-64
2022/12/14 03:50:00;;;;;;;12.43;8.75;;;;;;;-4.38;84.55;146248.59;5039588;28;20038;-64
2022/12/14 03:52:34;;;;;;;15.57;9.43;;;;;;;-4.21;85.24;146290.41;5026612;28;20029;-64
2022/12/14 03:55:19;;;;;;;11.98;8.80;;;;;;;-4.26;84.95;146279.03;5042977;28;20025;-64
2022/12/14 03:57:45;;;;;;;13.80;9.77;;;;;;;-4.07;84.69;146325.88;5023390;28;20032;-63
2022/12/14 04:00:17;;;;;;;13.93;9.57;;;;;;;-4.48;84.74;146224.53;5040747;28;20037;-63
2022/12/14 04:03:15;;;;;;;13.80;9.48;;;;;;;-4.27;86.25;146275.22;5043038;28;20302;-63
2022/12/14 04:05:55;;;;;;;14.48;8.98;;;;;;;-4.21;84.87;146290.41;5033782;28;20064;-65
2022/12/14 04:08:40;;;;;;;13.63;9.18;;;;;;;-4.14;84.55;146308.13;5037633;28;20025;-64
2022/12/14 04:19:55;;;;;;;16.42;10.82;;;;;;;-4.11;84.15;146314.47;5027421;28;20080;-63
2022/12/14 04:22:25;;;;;;;12.25;8.77;;;;;;;-4.50;84.04;146219.50;5044595;28;20057;-63
2022/12/14 04:29:55;;;;;;;14.88;10.10;;;;;;;-4.09;85.11;146320.81;5026715;28;20251;-63
2022/12/14 04:31:18;;;;;;;15.88;10.30;;;;;;;-4.03;84.87;146334.75;5026534;28;20037;-64
2022/12/14 04:33:51;;;;;;;13.00;9.73;;;;;;;-4.17;84.49;146301.78;5025775;28;20051;-64
2022/12/14 04:36:41;;;;;;;13.93;10.15;;;;;;;-4.15;84.92;146305.59;5044617;28;20024;-62
2022/12/14 04:39:21;;;;;;;14.10;9.95;;;;;;;-4.20;84.73;146294.22;5028176;28;20092;-64
2022/12/14 04:41:51;;;;;;;16.42;10.38;;;;;;;-3.83;83.96;146385.41;5040100;28;20064;-63
2022/12/14 04:44:36;;;;;;;15.77;10.40;;;;;;;-3.97;83.66;146348.69;5036575;28;20102;-63
2022/12/14 04:47:06;;;;;;;17.27;11.27;;;;;;;-4.28;83.95;146273.94;5033573;28;20048;-63
2022/12/14 04:50:07;;;;;;;15.00;11.00;;;;;;;-4.11;83.73;146315.72;5042628;28;20022;-64
2022/12/14 04:52:49;;;;;;;18.03;11.27;;;;;;;-3.96;84.28;146351.19;5029445;28;20041;-63
2022/12/14 04:55:32;;;;;;;15.75;11.13;;;;;;;-3.88;83.96;146371.47;5044513;28;20621;-63
2022/12/14 04:58:06;;;;;;;18.00;11.98;;;;;;;-3.76;84.63;146400.59;5026165;28;20030;-63
2022/12/14 05:00:36;;;;;;;16.50;11.38;;;;;;;-3.86;84.04;146376.56;5026129;28;20096;-63
2022/12/14 05:03:26;;;;;;;17.17;11.00;;;;;;;-3.81;84.06;146390.47;5041545;28;20256;-63
2022/12/14 05:06:29;;;;;;;24.13;10.52;;;;;;;-3.66;83.72;146427.22;5045093;28;20021;-63
2022/12/14 05:09:07;;;;;;;15.40;10.30;;;;;;;-3.63;83.76;146433.56;5036831;28;20105;-63
2022/12/14 05:11:51;;;;;;;16.55;10.77;;;;;;;-3.76;83.21;146401.91;5024893;28;20080;-61
2022/12/14 05:14:23;;;;;;;16.60;11.18;;;;;;;-3.82;82.97;146386.66;5025290;28;20034;-63
2022/12/14 05:16:49;;;;;;;18.00;11.88;;;;;;;-3.61;84.73;146437.38;5025550;28;20034;-63
2022/12/14 05:19:15;;;;;;;15.95;10.40;;;;;;;-3.47;84.02;146472.84;5026306;28;20034;-62
2022/12/14 05:21:46;;;;;;;16.08;10.90;;;;;;;-3.38;84.29;146494.41;5044957;28;20027;-62
2022/12/14 05:24:12;;;;;;;15.38;11.15;;;;;;;-3.41;83.56;146486.81;5028491;28;20093;-62
2022/12/14 05:26:38;;;;;;;15.65;11.05;;;;;;;-3.43;82.52;146483.00;5037351;28;20310;-64
2022/12/14 05:29:03;;;;;;;15.70;10.68;;;;;;;-3.78;83.30;146395.56;5037040;28;20030;-63
2022/12/14 05:31:29;;;;;;;16.25;10.85;;;;;;;-4.00;83.13;146342.34;5025016;28;20033;-64
2022/12/14 05:33:54;;;;;;;17.13;10.98;;;;;;;-3.89;83.96;146370.22;5039047;28;20052;-63
2022/12/14 05:36:20;;;;;;;16.80;11.48;;;;;;;-3.63;83.42;146433.56;5045448;28;20040;-63
2022/12/14 05:38:46;;;;;;;16.40;11.30;;;;;;;-3.46;84.11;146475.41;5032043;28;20084;-63
2022/12/14 05:41:11;;;;;;;17.55;11.90;;;;;;;-3.50;83.76;146465.25;5033387;28;20341;-63
2022/12/14 05:43:37;;;;;;;17.50;10.95;;;;;;;-3.71;82.69;146414.53;5041374;28;20249;-63
2022/12/14 05:46:03;;;;;;;17.10;11.27;;;;;;;-3.76;83.05;146401.91;5024964;28;20030;-63
2022/12/14 05:48:30;;;;;;;16.23;11.00;;;;;;;-3.67;83.36;146424.69;5044273;28;20075;-63
2022/12/14 05:51:10;;;;;;;19.85;11.90;;;;;;;-3.90;83.36;146367.69;5030336;28;20053;-63
2022/12/14 05:53:36;;;;;;;15.57;10.57;;;;;;;-3.73;83.54;146408.25;5036616;28;20044;-63
2022/12/14 05:56:03;;;;;;;18.80;11.65;;;;;;;-3.88;83.66;146371.47;5037648;28;20314;-63
2022/12/14 05:58:28;;;;;;;14.98;10.18;;;;;;;-4.18;83.31;146299.25;5027415;28;20206;-62
2022/12/14 06:00:59;;;;;;;17.02;11.15;;;;;;;-4.02;83.09;146338.56;5044530;28;20033;-64
2022/12/14 06:03:25;;;;;;;19.42;11.35;;;;;;;-3.65;84.82;146429.78;5026376;28;20342;-63
2022/12/14 06:05:51;;;;;;;17.90;11.50;;;;;;;-3.56;83.76;146450.03;5024753;28;20030;-64
2022/12/14 06:08:16;;;;;;;15.43;10.93;;;;;;;-3.67;83.46;146423.44;5030542;28;20033;-62
2022/12/14 06:10:42;;;;;;;18.77;11.55;;;;;;;-3.74;82.54;146405.69;5037413;28;20034;-63
2022/12/14 06:13:08;;;;;;;17.90;11.88;;;;;;;-3.73;83.83;146409.50;5039490;28;20045;-63
2022/12/14 06:15:33;;;;;;;15.90;11.35;;;;;;;-3.71;83.31;146414.53;5044594;28;20272;-64
2022/12/14 06:17:59;;;;;;;18.77;12.50;;;;;;;-3.50;83.44;146466.50;5029703;28;20021;-63
2022/12/14 06:20:24;;;;;;;17.50;12.02;;;;;;;-3.86;83.40;146377.81;5034497;28;20213;-64
2022/12/14 06:22:50;;;;;;;17.08;12.38;;;;;;;-3.67;83.43;146423.44;5037764;28;20356;-64
2022/12/14 06:25:15;;;;;;;19.05;13.07;;;;;;;-3.75;82.92;146404.41;5042532;28;20029;-64
2022/12/14 06:27:41;;;;;;;15.73;10.82;;;;;;;-4.08;83.35;146323.31;5023780;28;20213;-63
2022/12/14 06:30:07;;;;;;;17.27;11.98;;;;;;;-3.70;83.39;146417.09;5039896;28;20029;-64
2022/12/14 06:32:33;;;;;;;17.20;12.10;;;;;;;-3.83;83.74;146384.16;5041436;28;20024;-63
2022/12/14 06:34:58;;;;;;;16.70;11.77;;;;;;;-3.60;84.04;146439.94;5029627;28;20037;-62
2022/12/14 06:37:24;;;;;;;19.10;13.07;;;;;;;-3.50;84.19;146465.25;5025632;28;20025;-63
2022/12/14 06:39:49;;;;;;;17.77;12.10;;;;;;;-3.51;83.95;146462.72;5033283;28;20067;-63
2022/12/14 06:42:15;;;;;;;20.25;12.57;;;;;;;-3.28;84.96;146518.50;5034178;28;20025;-64
2022/12/14 06:44:40;;;;;;;18.13;12.45;;;;;;;-3.10;84.37;146564.13;5031732;28;20025;-64
2022/12/14 06:47:06;;;;;;;16.20;11.63;;;;;;;-2.98;84.45;146593.28;5023658;28;20037;-63
2022/12/14 06:49:32;;;;;;;18.95;12.90;;;;;;;-2.97;84.26;146597.06;5026423;28;20034;-63
2022/12/14 06:51:57;;;;;;;17.65;11.88;;;;;;;-3.26;83.72;146524.84;5043352;28;20030;-62
2022/12/14 06:54:23;;;;;;;17.40;12.90;;;;;;;-3.28;84.08;146518.50;5025835;28;20032;-63
2022/12/14 06:56:48;;;;;;;21.45;12.27;;;;;;;-3.37;83.95;146498.19;5028693;28;20018;-62
2022/12/14 06:59:15;;;;;;;17.13;12.00;;;;;;;-3.40;83.92;146489.34;5035141;28;20029;-63
2022/12/14 07:01:41;;;;;;;18.85;13.82;;;;;;;-3.40;84.33;146490.59;5023465;28;20207;-64
2022/12/14 07:04:07;;;;;;;17.83;12.75;;;;;;;-3.40;84.33;146489.34;5022565;28;20047;-63
2022/12/14 07:06:38;;;;;;;16.65;11.80;;;;;;;-3.39;85.12;146491.84;5042431;28;20025;-63
2022/12/14 07:09:06;;;;;;;19.45;12.68;;;;;;;-3.34;84.07;146505.78;5028538;28;20034;-63
2022/12/14 07:11:32;;;;;;;19.50;12.75;;;;;;;-3.21;84.60;146536.22;5023121;28;20053;-62
2022/12/14 07:14:04;;;;;;;21.08;13.48;;;;;;;-3.23;84.09;146531.19;5035504;28;20021;-63
2022/12/14 07:16:30;;;;;;;17.73;12.98;;;;;;;-3.06;84.18;146573.03;5041505;28;20053;-66
2022/12/14 07:18:56;;;;;;;17.05;12.27;;;;;;;-2.96;84.79;146598.38;5022279;28;20029;-64
2022/12/14 07:21:23;;;;;;;18.60;12.23;;;;;;;-3.23;84.48;146532.44;5040366;28;20033;-64
2022/12/14 07:23:51;;;;;;;20.45;12.93;;;;;;;-2.91;84.78;146611.03;5029557;28;20032;-65
2022/12/14 07:26:20;;;;;;;23.17;13.82;;;;;;;-3.13;84.34;146556.53;5030486;28;20096;-64
2022/12/14 07:28:47;;;;;;;17.02;11.52;;;;;;;-3.47;83.20;146472.84;5043156;28;20049;-63
2022/12/14 07:31:24;;;;;;;19.10;12.48;;;;;;;-3.16;84.53;146548.94;5041507;28;20029;-65
2022/12/14 07:33:54;;;;;;;20.73;12.23;;;;;;;-2.94;84.14;146603.41;5023193;28;20022;-64
2022/12/14 07:36:22;;;;;;;19.08;12.18;;;;;;;-2.77;84.94;146646.53;5039805;28;20037;-64
2022/12/14 07:38:50;;;;;;;19.13;13.00;;;;;;;-2.83;84.85;146630.06;5042906;28;20045;-64
2022/12/14 07:41:22;;;;;;;17.42;11.65;;;;;;;-2.74;83.37;146652.88;5032385;28;20026;-65
2022/12/14 07:43:48;;;;;;;17.85;12.77;;;;;;;-2.92;81.06;146607.22;5035950;28;20357;-63
2022/12/14 07:46:17;;;;;;;16.90;12.40;;;;;;;-2.83;82.88;146630.06;5042665;28;20040;-64
2022/12/14 07:48:54;;;;;;;21.67;13.15;;;;;;;-2.54;83.67;146702.34;5027289;28;20093;-64
2022/12/14 07:51:28;;;;;;;19.83;12.23;;;;;;;-2.73;81.01;146655.44;5032726;28;20038;-63
2022/12/14 07:53:55;;;;;;;17.52;11.77;;;;;;;-2.88;80.72;146618.66;5033666;28;20063;-63
2022/12/14 07:56:23;;;;;;;20.13;12.85;;;;;;;-2.85;83.02;146626.28;5030103;28;20022;-64
2022/12/14 07:58:49;;;;;;;17.73;12.13;;;;;;;-2.52;83.03;146706.13;5038245;28;20029;-63
2022/12/14 08:01:19;;;;;;;18.17;12.48;;;;;;;-2.56;82.78;146696.03;5022915;28;20088;-66
2022/12/14 08:03:47;;;;;;;20.08;12.98;;;;;;;-2.60;82.80;146687.13;5028915;28;20025;-65
2022/12/14 08:06:14;;;;;;;20.17;14.00;;;;;;;-2.49;84.23;146713.78;5023179;28;20030;-64
2022/12/14 08:08:41;;;;;;;18.00;12.43;;;;;;;-2.40;83.79;146735.34;5025444;28;20025;-65
2022/12/14 08:11:07;;;;;;;16.60;12.18;;;;;;;-2.23;84.96;146778.47;5025964;28;20029;-64
2022/12/14 08:13:33;;;;;;;18.30;12.77;;;;;;;-2.21;83.76;146782.28;5033124;28;20060;-65
2022/12/14 08:16:08;;;;;;;17.20;12.32;;;;;;;-2.18;83.03;146791.19;5022268;28;20046;-65
2022/12/14 08:18:34;;;;;;;20.15;13.70;;;;;;;-2.17;82.50;146793.69;5023866;28;20053;-65
2022/12/14 08:21:01;;;;;;;17.83;12.45;;;;;;;-2.19;82.47;146787.38;5023564;28;20034;-64
2022/12/14 08:23:27;;;;;;;18.77;13.05;;;;;;;-2.11;82.94;146808.94;5025148;28;20037;-65
2022/12/14 08:25:57;;;;;;;20.30;13.18;;;;;;;-2.06;83.42;146819.09;5026722;28;20037;-64
2022/12/14 08:28:23;;;;;;;17.80;13.18;;;;;;;-2.04;82.79;146825.41;5040907;28;20053;-65
2022/12/14 08:30:49;;;;;;;15.82;11.35;;;;;;;-2.21;81.74;146782.28;5042463;28;20222;-64
2022/12/14 08:33:15;;;;;;;16.00;11.60;;;;;;;-2.04;81.64;146824.16;5041916;28;20092;-64
2022/12/14 08:35:41;;;;;;;17.80;12.98;;;;;;;-2.07;83.16;146817.81;5042291;28;20032;-63
2022/12/14 08:38:07;;;;;;;16.88;12.00;;;;;;;-2.17;80.76;146793.69;5035884;28;20206;-63
2022/12/14 08:40:37;;;;;;;17.52;12.20;;;;;;;-2.21;80.91;146782.28;5031408;28;20214;-65
2022/12/14 08:43:04;;;;;;;19.60;12.73;;;;;;;-2.32;80.98;146755.66;5031219;28;20022;-65
2022/12/14 08:45:29;;;;;;;18.83;12.60;;;;;;;-2.29;82.84;146763.28;5032074;28;20498;-65
2022/12/14 08:47:59;;;;;;;20.30;13.55;;;;;;;-2.20;83.46;146786.09;5034293;28;20021;-66
2022/12/14 08:50:25;;;;;;;19.83;13.05;;;;;;;-2.08;83.19;146815.31;5035800;28;20033;-64
2022/12/14 08:52:51;;;;;;;20.38;12.88;;;;;;;-2.08;82.98;146815.31;5038358;28;20053;-65
2022/12/14 08:55:17;;;;;;;18.52;12.60;;;;;;;-2.17;81.14;146793.69;5030377;28;20037;-64
2022/12/14 08:57:43;;;;;;;18.55;13.23;;;;;;;-2.18;81.92;146789.88;5036778;28;20337;-66
2022/12/14 09:00:10;;;;;;;18.98;12.68;;;;;;;-2.17;82.00;146792.44;5035139;28;20125;-65
2022/12/14 09:02:35;;;;;;;22.13;13.13;;;;;;;-2.19;81.57;146787.38;5027916;28;20072;-65
2022/12/14 09:05:02;;;;;;;24.75;14.45;;;;;;;-2.31;82.02;146759.47;5032539;28;20221;-65
2022/12/14 09:07:29;;;;;;;21.17;14.60;;;;;;;-2.24;82.79;146775.94;5040169;28;20047;-65
2022/12/14 09:09:54;;;;;;;24.08;14.95;;;;;;;-2.35;82.92;146749.31;5036134;28;20072;-64
2022/12/14 09:12:20;;;;;;;26.77;16.67;;;;;;;-2.26;82.88;146770.88;5034609;28;20075;-64
2022/12/14 09:14:48;;;;;;;24.23;16.63;;;;;;;-2.14;83.75;146800.03;5033660;28;20073;-64
2022/12/14 09:17:15;;;;;;;24.65;15.55;;;;;;;-2.23;83.70;146777.22;5033844;28;20039;-65
2022/12/14 09:19:40;;;;;;;22.15;14.85;;;;;;;-2.18;83.15;146789.88;5033906;28;20022;-65
2022/12/14 09:22:07;;;;;;;22.20;15.55;;;;;;;-2.16;82.70;146795.00;5036117;28;20028;-66
2022/12/14 09:24:33;;;;;;;25.98;16.95;;;;;;;-2.24;83.48;146774.69;5035302;28;20037;-65
2022/12/14 09:26:59;;;;;;;25.52;16.60;;;;;;;-2.24;84.07;146775.94;5033802;28;20080;-65
2022/12/14 09:29:25;;;;;;;28.13;17.25;;;;;;;-2.18;84.50;146789.88;5032121;28;20037;-65
2022/12/14 09:31:51;;;;;;;25.75;16.60;;;;;;;-2.15;83.77;146798.78;5032927;28;20055;-65
2022/12/14 09:34:18;;;;;;;23.25;16.20;;;;;;;-2.19;84.57;146788.63;5033662;28;20081;-65
2022/12/14 09:36:44;;;;;;;24.98;17.02;;;;;;;-2.26;84.90;146772.13;5034359;28;20025;-65
2022/12/14 09:39:13;;;;;;;24.77;18.27;;;;;;;-2.26;84.39;146770.88;5034399;28;20030;-66
2022/12/14 09:41:39;;;;;;;29.13;18.23;;;;;;;-2.07;84.68;146817.81;5034405;28;20336;-65
2022/12/14 09:44:24;;;;;;;32.58;18.38;;;;;;;-2.02;85.07;146830.50;5028169;28;20037;-65
2022/12/14 09:46:58;;;;;;;25.02;17.55;;;;;;;-2.16;84.29;146796.25;5035715;28;20322;-65
2022/12/14 09:49:30;;;;;;;26.45;17.02;;;;;;;-2.03;83.54;146827.97;5041980;28;20033;-64
2022/12/14 09:52:03;;;;;;;27.05;16.77;;;;;;;-2.25;82.74;146773.44;5025242;28;20089;-65
2022/12/14 09:54:32;;;;;;;22.13;14.75;;;;;;;-2.24;82.71;146775.94;5042111;28;20060;-64
2022/12/14 09:57:23;;;;;;;24.77;16.25;;;;;;;-2.15;83.81;146798.78;5037909;28;20551;-64
2022/12/14 09:59:52;;;;;;;20.15;14.43;;;;;;;-2.41;82.46;146734.06;5024881;28;20026;-64
2022/12/14 10:02:39;;;;;;;22.25;15.15;;;;;;;-2.28;82.55;146767.06;5029333;28;20030;-65
2022/12/14 10:05:17;;;;;;;23.63;14.88;;;;;;;-2.42;82.36;146731.56;5039295;28;20026;-64
2022/12/14 10:08:21;;;;;;;20.65;14.63;;;;;;;-2.44;82.29;146727.75;5033263;28;20092;-65
2022/12/14 10:10:59;;;;;;;21.45;13.55;;;;;;;-2.38;82.26;146740.41;5040330;28;20133;-64
2022/12/14 10:13:34;;;;;;;21.23;14.10;;;;;;;-2.27;82.95;146769.63;5033883;28;20103;-64
2022/12/14 10:16:36;;;;;;;20.60;13.50;;;;;;;-2.15;81.36;146797.50;5041216;28;20376;-64
2022/12/14 10:19:12;;;;;;;22.02;14.30;;;;;;;-2.09;81.17;146814.00;5025147;28;20049;-64
2022/12/14 10:21:50;;;;;;;22.85;15.45;;;;;;;-2.33;80.89;146753.13;5027720;28;20044;-64
2022/12/14 10:24:21;;;;;;;19.40;13.70;;;;;;;-2.27;80.38;146768.31;5029713;28;20033;-64
2022/12/14 10:26:51;;;;;;;21.80;14.07;;;;;;;-2.18;81.41;146789.88;5024441;28;20017;-64
2022/12/14 10:29:29;;;;;;;23.65;13.88;;;;;;;-2.26;81.32;146772.13;5030760;28;20044;-64
2022/12/14 10:32:27;;;;;;;19.60;13.43;;;;;;;-2.13;80.43;146803.84;5041640;28;20025;-64
2022/12/14 10:34:53;;;;;;;22.45;14.23;;;;;;;-2.05;82.47;146822.91;5040724;28;20045;-64
2022/12/14 10:37:25;;;;;;;23.45;13.90;;;;;;;-2.14;81.86;146801.34;5024288;28;20105;-65
2022/12/14 10:39:50;;;;;;;21.10;13.48;;;;;;;-1.88;82.57;146863.50;5043036;28;20038;-64
2022/12/14 10:42:20;;;;;;;21.73;14.48;;;;;;;-1.78;81.13;146890.16;5029401;28;20030;-64
2022/12/14 10:45:08;;;;;;;19.33;12.95;;;;;;;-2.02;80.98;146829.22;5033540;28;20096;-65
2022/12/14 10:47:41;;;;;;;24.52;13.63;;;;;;;-1.84;81.71;146873.66;5036412;28;20045;-64
2022/12/14 10:50:37;;;;;;;20.35;13.38;;;;;;;-1.87;81.50;146867.28;5035400;28;20029;-64
2022/12/14 10:53:09;;;;;;;19.92;12.98;;;;;;;-2.01;81.73;146833.06;5039973;28;20226;-64
2022/12/14 10:55:38;;;;;;;;;;;;;;;-2.09;81.33;146814.00;5031342;28;20105;-64
2022/12/14 10:58:04;;;;;;;19.55;12.07;;;;;;;-2.05;82.25;146822.91;5036190;28;19909;-64
2022/12/14 11:00:29;;;;;;;19.10;12.30;;;;;;;-1.91;82.97;146858.44;5033790;28;20056;-65
2022/12/14 11:02:57;;;;;;;20.30;12.50;;;;;;;-1.92;82.17;146855.88;5027885;28;20041;-65
2022/12/14 11:05:33;;;;;;;21.45;11.95;;;;;;;-2.05;82.46;146821.59;5025585;28;20045;-65
2022/12/14 11:07:59;;;;;;;17.50;11.93;;;;;;;-1.83;81.70;146876.19;5034075;28;20063;-64
2022/12/14 11:10:30;;;;;;;17.33;11.85;;;;;;;-1.88;81.84;146863.50;5030467;28;20034;-64
2022/12/14 11:13:18;;;;;;;16.13;11.85;;;;;;;-1.89;82.36;146861.00;5034424;28;20096;-64
2022/12/14 11:15:46;;;;;;;21.45;12.52;;;;;;;-1.86;82.87;146869.84;5030576;28;20377;-63
2022/12/14 11:18:14;;;;;;;14.32;10.55;;;;;;;-1.77;83.14;146891.41;5034507;28;20036;-64
2022/12/14 11:20:59;;;;;;;18.98;11.65;;;;;;;-2.04;81.99;146824.16;5040668;28;20221;-65
2022/12/14 11:23:34;;;;;;;17.42;10.77;;;;;;;-1.98;82.67;146840.69;5034063;28;20056;-64
2022/12/14 11:26:03;;;;;;;18.25;10.43;;;;;;;-1.96;83.41;146844.47;5038934;28;20101;-64
2022/12/14 11:28:38;;;;;;;13.57;10.20;;;;;;;-2.04;83.42;146825.41;5025130;28;20245;-64
2022/12/14 11:31:03;;;;;;;14.82;9.18;;;;;;;-1.84;84.48;146873.66;5023425;28;20057;-65
2022/12/14 11:33:39;;;;;;;15.40;9.48;;;;;;;-1.89;83.37;146861.00;5038910;28;20059;-65
2022/12/14 11:36:06;;;;;;;13.65;8.93;;;;;;;-1.77;83.88;146892.72;5030357;28;20122;-63
2022/12/14 11:38:33;;;;;;;13.52;8.95;;;;;;;-2.20;84.04;146786.09;5022673;28;20036;-65
2022/12/14 11:41:01;;;;;;;10.65;8.32;;;;;;;-1.96;84.68;146844.47;5039005;28;20038;-64
2022/12/14 11:43:37;;;;;;;11.80;8.30;;;;;;;-1.68;83.71;146914.28;5039065;28;20104;-64
2022/12/14 11:46:04;;;;;;;13.57;8.13;;;;;;;-1.63;83.09;146926.97;5041165;28;20029;-65